In Rescue
 
Open Full Screen Window  High Contrast Mode
Wind Gusting 00 knots
07
July 22, 2019 4:00 PM CDT
Weather Information
Wind Direction
  030 °
Wind Speed
  07 kt (8 mph)
Wind Gust
  00 kt (0 mph)
Altimeter
30.30 in
Visibility
10 SM
Temperature
21° C
70° F
Dewpoint
15° C
59° F
Humidity
69%
1hr Rain Fall
00.00 in.
24hr Rain Fall
00.00 in.
Sky Condition
Scattered @ 5,000 ft
VFR

METAR KMDS 222100Z AUTO 03007KT 10SM SCT050 21/15 A3030 RMK AO2

FAA Disclaimer: The data displayed is for advisory purposes only and is not to be used for flight planning or operations.